createdAt,value
2018-08-30T00:02:12.831Z,99812.38
2018-08-30T00:07:16.806Z,99803.41
2018-08-30T00:12:21.785Z,99811.86
2018-08-30T00:17:27.398Z,99807.09
2018-08-30T00:22:31.294Z,99810.29
2018-08-30T00:27:35.270Z,99809.61
2018-08-30T00:32:39.112Z,99804.34
2018-08-30T00:37:48.093Z,99805.84
2018-08-30T00:42:52.001Z,99813.06
2018-08-30T00:47:56.484Z,99812.70
2018-08-30T00:53:00.234Z,99815.67
2018-08-30T00:58:03.998Z,99822.08
2018-08-30T01:03:07.731Z,99823.08
2018-08-30T01:08:11.362Z,99832.48
2018-08-30T01:13:15.030Z,99833.82
2018-08-30T01:18:18.777Z,99842.59
2018-08-30T01:23:22.420Z,99846.59
2018-08-30T01:28:26.124Z,99838.31
2018-08-30T01:33:30.659Z,99839.95
2018-08-30T01:38:35.301Z,99836.73
2018-08-30T01:43:39.946Z,99845.67
2018-08-30T01:49:11.668Z,99829.46
2018-08-30T01:54:15.522Z,99861.02
2018-08-30T01:59:19.263Z,99865.86
2018-08-30T02:04:23.002Z,99857.58
2018-08-30T02:09:26.946Z,99873.42
2018-08-30T02:14:31.002Z,99867.12
2018-08-30T02:19:35.188Z,99862.73
2018-08-30T02:24:40.029Z,99867.45
2018-08-30T02:29:45.861Z,99881.28
2018-08-30T02:34:50.461Z,99875.70
2018-08-30T02:39:54.247Z,99892.41
2018-08-30T02:44:58.031Z,99901.16
2018-08-30T02:50:06.364Z,99895.42
2018-08-30T02:55:12.081Z,99889.64
2018-08-30T03:00:16.199Z,99886.10
2018-08-30T03:05:21.077Z,99880.36
2018-08-30T03:10:25.087Z,99884.06
2018-08-30T03:15:29.897Z,99882.72
2018-08-30T03:20:33.753Z,99886.42
2018-08-30T03:25:37.566Z,99883.88
2018-08-30T03:30:41.383Z,99894.17
2018-08-30T03:35:45.391Z,99896.69
2018-08-30T03:40:49.033Z,99908.98
2018-08-30T03:45:52.878Z,99914.26
2018-08-30T03:50:56.789Z,99927.00
2018-08-30T03:56:07.773Z,99928.00
2018-08-30T04:01:11.650Z,99928.81
2018-08-30T04:06:15.432Z,99944.84
2018-08-30T04:11:19.612Z,99958.77
2018-08-30T04:16:23.470Z,99947.78
2018-08-30T04:21:28.348Z,99951.64
2018-08-30T04:26:32.270Z,99953.14
2018-08-30T04:31:36.600Z,99955.62
2018-08-30T04:36:40.466Z,99963.36
2018-08-30T04:41:44.427Z,99967.41
2018-08-30T04:46:48.223Z,99966.22
2018-08-30T04:51:52.146Z,99977.35
2018-08-30T04:56:56.104Z,99978.20
2018-08-30T05:01:59.959Z,99993.19
2018-08-30T05:07:03.776Z,99992.84
2018-08-30T05:12:07.677Z,99988.95
2018-08-30T05:17:11.534Z,99996.34
2018-08-30T05:22:15.419Z,99999.05
2018-08-30T05:27:19.308Z,100004.91
2018-08-30T05:32:24.200Z,100000.86
2018-08-30T05:37:28.142Z,100000.51
2018-08-30T05:42:31.981Z,100003.20
2018-08-30T05:47:35.879Z,100001.36
2018-08-30T05:52:39.724Z,100004.44
2018-08-30T05:57:43.535Z,100004.06
2018-08-30T06:02:47.380Z,100010.45
2018-08-30T06:07:52.033Z,100020.73
2018-08-30T06:12:56.195Z,100018.05
2018-08-30T06:18:00.217Z,100013.80
2018-08-30T06:23:04.089Z,100022.73
2018-08-30T06:28:09.320Z,100022.23
2018-08-30T06:33:13.200Z,100021.20
2018-08-30T06:38:17.759Z,100024.23
2018-08-30T06:43:22.426Z,100022.55
2018-08-30T06:48:26.271Z,100035.03
2018-08-30T06:53:30.351Z,100040.08
2018-08-30T06:58:34.575Z,100042.92
2018-08-30T07:03:38.384Z,100050.16
2018-08-30T07:08:45.120Z,100051.44
2018-08-30T07:13:48.819Z,100069.20
2018-08-30T07:18:52.461Z,100070.35
2018-08-30T07:23:56.717Z,100072.47
2018-08-30T07:29:00.395Z,100079.90
2018-08-30T07:34:04.023Z,100093.80
2018-08-30T07:39:10.354Z,100103.80
2018-08-30T07:44:20.749Z,100121.88
2018-08-30T07:49:24.287Z,100134.16
2018-08-30T07:54:27.989Z,100143.66
2018-08-30T07:59:31.906Z,100147.09
2018-08-30T08:04:36.267Z,100161.02
2018-08-30T08:09:39.951Z,100156.86
2018-08-30T08:14:43.603Z,100167.84
2018-08-30T08:19:47.318Z,100175.30
2018-08-30T08:24:51.013Z,100188.38
2018-08-30T08:29:54.661Z,100207.91
2018-08-30T08:34:58.434Z,100203.88
2018-08-30T08:40:04.290Z,100217.94
2018-08-30T08:45:08.077Z,100214.64
2018-08-30T08:50:12.703Z,100220.25
2018-08-30T08:55:16.337Z,100233.80
2018-08-30T09:00:20.028Z,100236.48
2018-08-30T09:05:23.698Z,100249.28
2018-08-30T09:10:27.398Z,100249.14
2018-08-30T09:15:31.051Z,100260.13
2018-08-30T09:20:34.662Z,100256.36
2018-08-30T09:25:38.374Z,100263.92
2018-08-30T09:30:42.005Z,100273.69
2018-08-30T09:35:45.704Z,100292.12
2018-08-30T09:40:49.669Z,100295.01
2018-08-30T09:45:53.638Z,100293.64
2018-08-30T09:50:58.446Z,100310.84
2018-08-30T09:56:02.391Z,100308.40
2018-08-30T10:01:11.877Z,100319.75
2018-08-30T10:06:15.733Z,100323.39
2018-08-30T10:16:35.026Z,100338.40
2018-08-30T10:21:38.792Z,100351.58
2018-08-30T10:26:42.352Z,100352.04
2018-08-30T10:31:46.122Z,100364.45
2018-08-30T10:36:49.763Z,100365.47
2018-08-30T10:41:53.414Z,100365.91
2018-08-30T10:46:57.134Z,100362.02
2018-08-30T10:52:00.806Z,100359.28
2018-08-30T10:57:04.487Z,100366.34
2018-08-30T11:02:08.252Z,100376.73
2018-08-30T11:07:11.966Z,100379.27
2018-08-30T11:12:15.696Z,100376.45
2018-08-30T11:17:19.492Z,100387.89
2018-08-30T11:22:23.267Z,100398.69
2018-08-30T11:27:26.986Z,100397.27
2018-08-30T11:32:30.710Z,100402.80
2018-08-30T11:37:34.821Z,100396.11
2018-08-30T11:42:38.548Z,100404.04
2018-08-30T11:47:42.442Z,100414.06
2018-08-30T11:52:46.251Z,100422.06
2018-08-30T11:57:50.362Z,100431.66
2018-08-30T12:02:54.526Z,100440.52
2018-08-30T12:08:01.525Z,100438.55
2018-08-30T12:13:07.847Z,100427.69
2018-08-30T12:18:11.670Z,100424.58
2018-08-30T12:23:15.389Z,100426.48
2018-08-30T12:28:19.190Z,100440.22
2018-08-30T12:33:24.191Z,100431.60
2018-08-30T12:38:27.964Z,100436.89
2018-08-30T12:48:52.605Z,100427.03
2018-08-30T12:53:56.612Z,100432.42
2018-08-30T12:59:05.543Z,100442.31
2018-08-30T13:04:10.364Z,100447.58
2018-08-30T13:09:21.512Z,100440.97
2018-08-30T13:19:48.044Z,100452.54
2018-08-30T13:24:52.650Z,100453.44
2018-08-30T13:29:57.415Z,100448.16
2018-08-30T13:35:04.508Z,100456.45
2018-08-30T13:40:08.800Z,100453.37
2018-08-30T13:45:13.019Z,100462.78
2018-08-30T13:50:18.000Z,100469.50
2018-08-30T13:55:22.828Z,100474.27
2018-08-30T14:00:26.980Z,100472.52
2018-08-30T14:05:30.247Z,100476.45
2018-08-30T14:10:34.441Z,100479.02
2018-08-30T14:15:37.790Z,100479.47
2018-08-30T14:20:43.436Z,100479.34
2018-08-30T14:25:47.160Z,100475.56
2018-08-30T14:30:50.891Z,100483.01
2018-08-30T14:35:54.576Z,100487.27
2018-08-30T14:40:58.277Z,100481.52
2018-08-30T14:46:02.013Z,100488.70
2018-08-30T14:51:05.805Z,100485.15
2018-08-30T14:56:09.602Z,100495.78
2018-08-30T15:01:13.413Z,100488.29
2018-08-30T15:06:17.253Z,100489.16
2018-08-30T15:11:20.993Z,100494.50
2018-08-30T15:16:24.828Z,100485.42
2018-08-30T15:21:29.745Z,100488.95
2018-08-30T15:26:34.266Z,100496.27
2018-08-30T15:31:37.889Z,100488.66
2018-08-30T15:36:41.594Z,100496.69
2018-08-30T15:41:45.294Z,100501.34
2018-08-30T15:46:49.070Z,100505.11
2018-08-30T15:51:53.472Z,100521.13
2018-08-30T15:56:57.144Z,100523.54
2018-08-30T16:02:01.320Z,100519.12
2018-08-30T16:07:05.056Z,100522.53
2018-08-30T16:12:10.397Z,100525.52
2018-08-30T16:33:03.034Z,100525.69
2018-08-30T16:38:07.789Z,100525.73
2018-08-30T16:43:11.879Z,100535.05
2018-08-30T16:48:16.072Z,100531.92
2018-08-30T16:53:20.439Z,100556.12
2018-08-30T16:58:24.214Z,100560.30
2018-08-30T17:03:27.971Z,100568.55
2018-08-30T17:08:31.834Z,100567.95
2018-08-30T17:13:35.707Z,100568.08
2018-08-30T17:18:40.021Z,100571.64
2018-08-30T17:23:43.913Z,100564.83
2018-08-30T17:28:47.770Z,100571.93
2018-08-30T17:33:51.880Z,100575.05
2018-08-30T17:38:55.921Z,100576.75
2018-08-30T17:43:59.862Z,100581.37
2018-08-30T17:49:03.857Z,100589.95
2018-08-30T17:54:07.811Z,100604.22
2018-08-30T17:59:12.871Z,100615.72
2018-08-30T18:04:16.609Z,100615.88
2018-08-30T18:09:20.392Z,100616.63
2018-08-30T18:14:24.323Z,100619.27
2018-08-30T18:19:28.155Z,100624.00
2018-08-30T18:24:31.962Z,100628.55
2018-08-30T18:29:35.805Z,100631.95
2018-08-30T18:34:39.610Z,100628.27
2018-08-30T18:39:43.437Z,100632.64
2018-08-30T18:44:47.230Z,100640.31
2018-08-30T18:49:50.946Z,100641.95
2018-08-30T18:54:54.653Z,100647.63
2018-08-30T18:59:58.330Z,100651.17
2018-08-30T19:05:05.956Z,100650.67
2018-08-30T19:10:09.756Z,100650.53
2018-08-30T19:15:18.810Z,100656.64
2018-08-30T19:20:22.514Z,100658.98
2018-08-30T19:25:29.784Z,100665.23
2018-08-30T19:30:33.959Z,100671.48
2018-08-30T19:35:42.835Z,100667.44
2018-08-30T19:40:51.802Z,100673.55
2018-08-30T19:45:55.579Z,100672.59
2018-08-30T19:50:59.230Z,100675.50
2018-08-30T19:56:02.924Z,100681.12
2018-08-30T20:01:06.751Z,100676.22
2018-08-30T20:06:10.360Z,100683.89
2018-08-30T20:11:14.184Z,100682.44
2018-08-30T20:16:17.933Z,100678.89
2018-08-30T20:21:21.632Z,100677.89
2018-08-30T20:26:25.891Z,100688.33
2018-08-30T20:31:29.491Z,100689.30
2018-08-30T20:36:33.137Z,100693.84
2018-08-30T20:41:36.760Z,100697.78
2018-08-30T20:46:40.428Z,100697.28
2018-08-30T20:51:44.037Z,100705.02
2018-08-30T20:56:47.795Z,100705.11
2018-08-30T21:01:51.592Z,100707.66
2018-08-30T21:06:55.317Z,100707.80
2018-08-30T21:11:59.090Z,100709.16
2018-08-30T21:17:02.795Z,100711.93
2018-08-30T21:22:06.647Z,100720.88
2018-08-30T21:27:10.324Z,100727.00
2018-08-30T21:32:13.979Z,100722.95
2018-08-30T21:37:17.769Z,100732.53
2018-08-30T21:42:21.431Z,100734.23
2018-08-30T21:47:25.090Z,100731.76
2018-08-30T21:52:28.774Z,100744.79
2018-08-30T21:57:32.496Z,100748.34
2018-08-30T22:02:36.288Z,100750.66
2018-08-30T22:07:39.928Z,100751.62
2018-08-30T22:12:43.826Z,100753.19
2018-08-30T22:17:47.519Z,100753.83
2018-08-30T22:22:51.163Z,100765.26
2018-08-30T22:27:55.786Z,100759.36
2018-08-30T22:32:59.393Z,100763.84
2018-08-30T22:38:03.126Z,100758.73
2018-08-30T22:43:06.813Z,100757.52
2018-08-30T22:48:10.496Z,100764.77
2018-08-30T22:53:14.150Z,100770.09
2018-08-30T22:58:18.088Z,100767.18
2018-08-30T23:03:21.761Z,100775.25
2018-08-30T23:08:25.558Z,100771.45
2018-08-30T23:13:29.389Z,100771.45
2018-08-30T23:18:33.064Z,100774.15
2018-08-30T23:23:36.741Z,100768.75
2018-08-30T23:28:40.299Z,100763.35
2018-08-30T23:33:43.943Z,100762.64
2018-08-30T23:38:47.954Z,100752.33
2018-08-30T23:43:51.640Z,100754.75
2018-08-30T23:48:55.303Z,100757.34
2018-08-30T23:53:58.945Z,100756.49
2018-08-30T23:59:13.599Z,100767.66
